sensor_id;sensor_type;location;lat;lon;timestamp;P1;durP1;ratioP1;P2;durP2;ratioP2
17794;SDS011;9021;50.882;4.326;2023-02-22T00:00:25;66.63;;;27.95;;
17794;SDS011;9021;50.882;4.326;2023-02-22T00:03:24;60.20;;;28.15;;
17794;SDS011;9021;50.882;4.326;2023-02-22T00:05:55;61.13;;;27.48;;
17794;SDS011;9021;50.882;4.326;2023-02-22T00:08:27;57.45;;;27.75;;
17794;SDS011;9021;50.882;4.326;2023-02-22T00:11:04;65.93;;;28.52;;
17794;SDS011;9021;50.882;4.326;2023-02-22T00:13:32;48.90;;;26.38;;
17794;SDS011;9021;50.882;4.326;2023-02-22T00:15:58;74.22;;;27.85;;
17794;SDS011;9021;50.882;4.326;2023-02-22T00:18:25;107.70;;;29.15;;
17794;SDS011;9021;50.882;4.326;2023-02-22T00:20:52;54.50;;;29.13;;
17794;SDS011;9021;50.882;4.326;2023-02-22T00:23:26;71.22;;;28.38;;
17794;SDS011;9021;50.882;4.326;2023-02-22T00:25:53;181.68;;;30.35;;
17794;SDS011;9021;50.882;4.326;2023-02-22T00:28:20;122.00;;;30.75;;
17794;SDS011;9021;50.882;4.326;2023-02-22T00:30:48;100.72;;;29.80;;
17794;SDS011;9021;50.882;4.326;2023-02-22T00:33:14;61.42;;;29.77;;
17794;SDS011;9021;50.882;4.326;2023-02-22T00:35:41;91.50;;;30.40;;
17794;SDS011;9021;50.882;4.326;2023-02-22T00:38:10;75.10;;;30.25;;
17794;SDS011;9021;50.882;4.326;2023-02-22T00:40:37;65.03;;;30.08;;
17794;SDS011;9021;50.882;4.326;2023-02-22T00:43:04;84.10;;;29.23;;
17794;SDS011;9021;50.882;4.326;2023-02-22T00:45:31;60.80;;;28.98;;
17794;SDS011;9021;50.882;4.326;2023-02-22T00:47:58;74.68;;;30.00;;
17794;SDS011;9021;50.882;4.326;2023-02-22T00:50:25;76.65;;;29.17;;
17794;SDS011;9021;50.882;4.326;2023-02-22T00:52:53;70.10;;;29.15;;
17794;SDS011;9021;50.882;4.326;2023-02-22T00:55:24;55.20;;;27.70;;
17794;SDS011;9021;50.882;4.326;2023-02-22T00:57:54;77.93;;;27.63;;
17794;SDS011;9021;50.882;4.326;2023-02-22T01:00:22;65.85;;;28.95;;
17794;SDS011;9021;50.882;4.326;2023-02-22T01:02:52;73.07;;;29.05;;
17794;SDS011;9021;50.882;4.326;2023-02-22T01:05:22;281.55;;;29.08;;
17794;SDS011;9021;50.882;4.326;2023-02-22T01:07:49;96.55;;;29.25;;
17794;SDS011;9021;50.882;4.326;2023-02-22T01:10:16;112.05;;;27.80;;
17794;SDS011;9021;50.882;4.326;2023-02-22T01:12:44;117.20;;;27.65;;
17794;SDS011;9021;50.882;4.326;2023-02-22T01:15:11;92.47;;;26.45;;
17794;SDS011;9021;50.882;4.326;2023-02-22T01:17:37;115.82;;;28.77;;
17794;SDS011;9021;50.882;4.326;2023-02-22T01:20:04;69.40;;;27.13;;
17794;SDS011;9021;50.882;4.326;2023-02-22T01:22:39;65.05;;;27.23;;
17794;SDS011;9021;50.882;4.326;2023-02-22T01:25:10;95.85;;;26.35;;
17794;SDS011;9021;50.882;4.326;2023-02-22T01:27:37;119.43;;;26.15;;
17794;SDS011;9021;50.882;4.326;2023-02-22T01:30:03;65.53;;;25.88;;
17794;SDS011;9021;50.882;4.326;2023-02-22T01:32:33;55.33;;;27.23;;
17794;SDS011;9021;50.882;4.326;2023-02-22T01:34:59;87.63;;;25.77;;
17794;SDS011;9021;50.882;4.326;2023-02-22T01:37:25;56.75;;;25.90;;
17794;SDS011;9021;50.882;4.326;2023-02-22T01:39:51;73.18;;;26.73;;
17794;SDS011;9021;50.882;4.326;2023-02-22T01:42:17;148.63;;;26.02;;
17794;SDS011;9021;50.882;4.326;2023-02-22T01:44:42;51.65;;;25.05;;
17794;SDS011;9021;50.882;4.326;2023-02-22T01:47:08;45.47;;;25.83;;
17794;SDS011;9021;50.882;4.326;2023-02-22T01:49:35;58.03;;;24.80;;
17794;SDS011;9021;50.882;4.326;2023-02-22T01:52:05;45.00;;;25.08;;
17794;SDS011;9021;50.882;4.326;2023-02-22T01:54:35;44.75;;;26.30;;
17794;SDS011;9021;50.882;4.326;2023-02-22T01:57:13;44.78;;;25.83;;
17794;SDS011;9021;50.882;4.326;2023-02-22T01:59:48;44.10;;;26.33;;
17794;SDS011;9021;50.882;4.326;2023-02-22T02:02:16;52.67;;;26.15;;
17794;SDS011;9021;50.882;4.326;2023-02-22T02:04:43;44.33;;;26.70;;
17794;SDS011;9021;50.882;4.326;2023-02-22T02:07:10;52.95;;;25.13;;
17794;SDS011;9021;50.882;4.326;2023-02-22T02:12:23;49.97;;;24.40;;
17794;SDS011;9021;50.882;4.326;2023-02-22T02:14:51;41.25;;;24.90;;
17794;SDS011;9021;50.882;4.326;2023-02-22T02:19:48;41.70;;;25.17;;
17794;SDS011;9021;50.882;4.326;2023-02-22T02:36:32;37.07;;;23.93;;
17794;SDS011;9021;50.882;4.326;2023-02-22T02:39:06;41.17;;;23.17;;
17794;SDS011;9021;50.882;4.326;2023-02-22T02:41:46;42.15;;;24.02;;
17794;SDS011;9021;50.882;4.326;2023-02-22T02:44:35;35.38;;;23.23;;
17794;SDS011;9021;50.882;4.326;2023-02-22T02:47:06;40.60;;;23.02;;
17794;SDS011;9021;50.882;4.326;2023-02-22T02:49:38;35.95;;;23.15;;
17794;SDS011;9021;50.882;4.326;2023-02-22T02:52:15;37.45;;;23.33;;
17794;SDS011;9021;50.882;4.326;2023-02-22T02:54:44;31.88;;;20.60;;
17794;SDS011;9021;50.882;4.326;2023-02-22T02:57:10;30.67;;;21.08;;
17794;SDS011;9021;50.882;4.326;2023-02-22T02:59:36;32.35;;;21.92;;
17794;SDS011;9021;50.882;4.326;2023-02-22T03:12:44;27.92;;;20.45;;
17794;SDS011;9021;50.882;4.326;2023-02-22T03:15:34;28.17;;;20.10;;
17794;SDS011;9021;50.882;4.326;2023-02-22T03:18:24;27.05;;;18.48;;
17794;SDS011;9021;50.882;4.326;2023-02-22T03:21:19;28.25;;;19.92;;
17794;SDS011;9021;50.882;4.326;2023-02-22T03:26:40;27.48;;;19.60;;
17794;SDS011;9021;50.882;4.326;2023-02-22T03:29:19;30.90;;;20.75;;
17794;SDS011;9021;50.882;4.326;2023-02-22T03:31:50;26.23;;;19.75;;
17794;SDS011;9021;50.882;4.326;2023-02-22T03:34:20;24.13;;;19.30;;
17794;SDS011;9021;50.882;4.326;2023-02-22T03:36:55;25.63;;;19.15;;
17794;SDS011;9021;50.882;4.326;2023-02-22T03:39:25;26.23;;;19.95;;
17794;SDS011;9021;50.882;4.326;2023-02-22T03:41:55;23.77;;;18.60;;
17794;SDS011;9021;50.882;4.326;2023-02-22T03:44:24;26.45;;;19.15;;
17794;SDS011;9021;50.882;4.326;2023-02-22T03:46:53;26.67;;;18.73;;
17794;SDS011;9021;50.882;4.326;2023-02-22T03:49:41;25.33;;;18.65;;
17794;SDS011;9021;50.882;4.326;2023-02-22T03:52:12;27.27;;;18.55;;
17794;SDS011;9021;50.882;4.326;2023-02-22T03:54:38;24.83;;;18.10;;
17794;SDS011;9021;50.882;4.326;2023-02-22T03:57:09;25.60;;;18.60;;
17794;SDS011;9021;50.882;4.326;2023-02-22T03:59:56;24.75;;;19.10;;
17794;SDS011;9021;50.882;4.326;2023-02-22T04:02:22;20.65;;;17.23;;
17794;SDS011;9021;50.882;4.326;2023-02-22T04:04:48;28.05;;;18.00;;
17794;SDS011;9021;50.882;4.326;2023-02-22T04:07:14;28.63;;;19.35;;
17794;SDS011;9021;50.882;4.326;2023-02-22T04:12:06;24.48;;;18.17;;
17794;SDS011;9021;50.882;4.326;2023-02-22T04:14:32;23.92;;;17.08;;
17794;SDS011;9021;50.882;4.326;2023-02-22T04:16:58;27.02;;;19.02;;
17794;SDS011;9021;50.882;4.326;2023-02-22T04:19:23;27.23;;;18.67;;
17794;SDS011;9021;50.882;4.326;2023-02-22T04:21:49;25.52;;;19.13;;
17794;SDS011;9021;50.882;4.326;2023-02-22T04:24:15;23.23;;;17.83;;
17794;SDS011;9021;50.882;4.326;2023-02-22T04:26:41;23.35;;;18.08;;
17794;SDS011;9021;50.882;4.326;2023-02-22T04:29:06;23.52;;;18.20;;
17794;SDS011;9021;50.882;4.326;2023-02-22T04:31:32;23.98;;;17.98;;
17794;SDS011;9021;50.882;4.326;2023-02-22T04:33:58;23.30;;;18.20;;
17794;SDS011;9021;50.882;4.326;2023-02-22T04:36:24;23.90;;;17.50;;
17794;SDS011;9021;50.882;4.326;2023-02-22T04:38:51;23.48;;;17.88;;
17794;SDS011;9021;50.882;4.326;2023-02-22T04:41:17;22.02;;;17.25;;
17794;SDS011;9021;50.882;4.326;2023-02-22T04:43:42;25.48;;;18.58;;
17794;SDS011;9021;50.882;4.326;2023-02-22T04:46:08;22.30;;;17.58;;
17794;SDS011;9021;50.882;4.326;2023-02-22T04:48:34;23.27;;;18.13;;
17794;SDS011;9021;50.882;4.326;2023-02-22T04:50:59;25.50;;;17.90;;
17794;SDS011;9021;50.882;4.326;2023-02-22T04:53:25;23.65;;;17.52;;
17794;SDS011;9021;50.882;4.326;2023-02-22T04:55:51;21.77;;;17.33;;
17794;SDS011;9021;50.882;4.326;2023-02-22T04:58:17;22.70;;;16.58;;
17794;SDS011;9021;50.882;4.326;2023-02-22T05:00:42;21.70;;;16.33;;
17794;SDS011;9021;50.882;4.326;2023-02-22T05:03:08;21.17;;;16.50;;
17794;SDS011;9021;50.882;4.326;2023-02-22T05:05:34;20.60;;;15.80;;
17794;SDS011;9021;50.882;4.326;2023-02-22T05:07:59;20.92;;;16.63;;
17794;SDS011;9021;50.882;4.326;2023-02-22T05:10:25;19.75;;;15.50;;
17794;SDS011;9021;50.882;4.326;2023-02-22T05:15:17;19.30;;;15.02;;
17794;SDS011;9021;50.882;4.326;2023-02-22T05:17:44;20.23;;;15.05;;
17794;SDS011;9021;50.882;4.326;2023-02-22T05:20:21;18.95;;;14.32;;
17794;SDS011;9021;50.882;4.326;2023-02-22T05:22:49;19.60;;;15.13;;
17794;SDS011;9021;50.882;4.326;2023-02-22T05:25:15;20.73;;;15.90;;
17794;SDS011;9021;50.882;4.326;2023-02-22T05:27:42;17.40;;;14.80;;
17794;SDS011;9021;50.882;4.326;2023-02-22T05:30:09;20.98;;;14.63;;
17794;SDS011;9021;50.882;4.326;2023-02-22T05:32:35;16.98;;;14.10;;
17794;SDS011;9021;50.882;4.326;2023-02-22T05:35:01;17.38;;;13.93;;
17794;SDS011;9021;50.882;4.326;2023-02-22T05:37:27;17.25;;;13.68;;
17794;SDS011;9021;50.882;4.326;2023-02-22T05:39:52;16.83;;;13.27;;
17794;SDS011;9021;50.882;4.326;2023-02-22T05:42:19;18.45;;;13.90;;
17794;SDS011;9021;50.882;4.326;2023-02-22T05:44:45;18.40;;;13.95;;
17794;SDS011;9021;50.882;4.326;2023-02-22T05:47:10;18.20;;;13.98;;
17794;SDS011;9021;50.882;4.326;2023-02-22T05:49:36;16.23;;;13.15;;
17794;SDS011;9021;50.882;4.326;2023-02-22T05:52:02;15.63;;;13.07;;
17794;SDS011;9021;50.882;4.326;2023-02-22T05:54:27;16.58;;;13.45;;
17794;SDS011;9021;50.882;4.326;2023-02-22T05:56:53;17.13;;;14.15;;
17794;SDS011;9021;50.882;4.326;2023-02-22T05:59:19;16.27;;;13.13;;
17794;SDS011;9021;50.882;4.326;2023-02-22T06:01:44;17.75;;;12.60;;
17794;SDS011;9021;50.882;4.326;2023-02-22T06:04:10;18.02;;;13.82;;
17794;SDS011;9021;50.882;4.326;2023-02-22T06:06:36;17.77;;;13.52;;
17794;SDS011;9021;50.882;4.326;2023-02-22T06:09:01;15.18;;;13.13;;
17794;SDS011;9021;50.882;4.326;2023-02-22T06:11:27;15.52;;;13.00;;
17794;SDS011;9021;50.882;4.326;2023-02-22T06:13:52;17.20;;;12.40;;
17794;SDS011;9021;50.882;4.326;2023-02-22T06:16:19;14.95;;;12.18;;
17794;SDS011;9021;50.882;4.326;2023-02-22T06:18:46;16.45;;;12.88;;
17794;SDS011;9021;50.882;4.326;2023-02-22T06:21:12;16.83;;;13.20;;
17794;SDS011;9021;50.882;4.326;2023-02-22T06:23:38;18.30;;;12.65;;
17794;SDS011;9021;50.882;4.326;2023-02-22T06:26:03;14.00;;;11.63;;
17794;SDS011;9021;50.882;4.326;2023-02-22T06:28:29;17.25;;;13.20;;
17794;SDS011;9021;50.882;4.326;2023-02-22T06:30:55;16.35;;;13.13;;
17794;SDS011;9021;50.882;4.326;2023-02-22T06:33:20;15.25;;;12.52;;
17794;SDS011;9021;50.882;4.326;2023-02-22T06:35:46;14.30;;;12.25;;
17794;SDS011;9021;50.882;4.326;2023-02-22T06:38:17;15.60;;;12.52;;
17794;SDS011;9021;50.882;4.326;2023-02-22T06:40:45;16.83;;;12.73;;
17794;SDS011;9021;50.882;4.326;2023-02-22T06:43:11;19.65;;;11.75;;
17794;SDS011;9021;50.882;4.326;2023-02-22T06:45:36;15.50;;;12.77;;
17794;SDS011;9021;50.882;4.326;2023-02-22T06:48:02;17.63;;;12.32;;
17794;SDS011;9021;50.882;4.326;2023-02-22T06:50:29;16.98;;;11.57;;
17794;SDS011;9021;50.882;4.326;2023-02-22T06:52:55;14.95;;;12.07;;
17794;SDS011;9021;50.882;4.326;2023-02-22T06:55:29;20.20;;;12.43;;
17794;SDS011;9021;50.882;4.326;2023-02-22T06:57:56;17.10;;;12.20;;
17794;SDS011;9021;50.882;4.326;2023-02-22T07:00:23;16.55;;;12.23;;
17794;SDS011;9021;50.882;4.326;2023-02-22T07:02:51;18.17;;;12.35;;
17794;SDS011;9021;50.882;4.326;2023-02-22T07:05:18;17.92;;;11.88;;
17794;SDS011;9021;50.882;4.326;2023-02-22T07:07:45;21.35;;;12.88;;
17794;SDS011;9021;50.882;4.326;2023-02-22T07:10:23;21.35;;;12.57;;
17794;SDS011;9021;50.882;4.326;2023-02-22T07:12:51;21.25;;;12.38;;
17794;SDS011;9021;50.882;4.326;2023-02-22T07:15:18;21.92;;;12.77;;
17794;SDS011;9021;50.882;4.326;2023-02-22T07:17:46;19.30;;;13.27;;
17794;SDS011;9021;50.882;4.326;2023-02-22T07:20:12;18.88;;;12.18;;
17794;SDS011;9021;50.882;4.326;2023-02-22T07:22:37;19.95;;;11.88;;
17794;SDS011;9021;50.882;4.326;2023-02-22T07:25:04;20.30;;;12.15;;
17794;SDS011;9021;50.882;4.326;2023-02-22T07:27:30;22.13;;;12.43;;
17794;SDS011;9021;50.882;4.326;2023-02-22T07:29:56;18.45;;;12.63;;
17794;SDS011;9021;50.882;4.326;2023-02-22T07:32:22;25.60;;;12.35;;
17794;SDS011;9021;50.882;4.326;2023-02-22T07:34:48;19.88;;;12.55;;
17794;SDS011;9021;50.882;4.326;2023-02-22T07:37:14;13.50;;;10.80;;
17794;SDS011;9021;50.882;4.326;2023-02-22T07:39:39;13.57;;;11.07;;
17794;SDS011;9021;50.882;4.326;2023-02-22T07:42:07;17.05;;;11.63;;
17794;SDS011;9021;50.882;4.326;2023-02-22T07:44:33;17.85;;;11.90;;
17794;SDS011;9021;50.882;4.326;2023-02-22T07:46:58;15.50;;;12.27;;
17794;SDS011;9021;50.882;4.326;2023-02-22T07:49:26;20.83;;;12.55;;
17794;SDS011;9021;50.882;4.326;2023-02-22T07:51:52;17.67;;;11.80;;
17794;SDS011;9021;50.882;4.326;2023-02-22T07:54:18;20.15;;;12.55;;
17794;SDS011;9021;50.882;4.326;2023-02-22T07:56:47;16.42;;;12.02;;
17794;SDS011;9021;50.882;4.326;2023-02-22T07:59:13;20.13;;;12.40;;
17794;SDS011;9021;50.882;4.326;2023-02-22T08:01:39;18.88;;;12.00;;
17794;SDS011;9021;50.882;4.326;2023-02-22T08:04:06;20.92;;;12.18;;
17794;SDS011;9021;50.882;4.326;2023-02-22T08:06:32;18.08;;;11.35;;
17794;SDS011;9021;50.882;4.326;2023-02-22T08:08:57;21.48;;;12.80;;
17794;SDS011;9021;50.882;4.326;2023-02-22T08:11:23;18.83;;;12.27;;
17794;SDS011;9021;50.882;4.326;2023-02-22T08:13:50;24.50;;;12.70;;
17794;SDS011;9021;50.882;4.326;2023-02-22T08:16:16;22.52;;;13.18;;
17794;SDS011;9021;50.882;4.326;2023-02-22T08:18:41;26.40;;;13.88;;
17794;SDS011;9021;50.882;4.326;2023-02-22T08:21:07;26.35;;;13.82;;
17794;SDS011;9021;50.882;4.326;2023-02-22T08:23:32;20.60;;;12.60;;
17794;SDS011;9021;50.882;4.326;2023-02-22T08:26:05;21.23;;;13.18;;
17794;SDS011;9021;50.882;4.326;2023-02-22T08:28:32;22.52;;;12.88;;
17794;SDS011;9021;50.882;4.326;2023-02-22T08:30:58;22.40;;;13.73;;
17794;SDS011;9021;50.882;4.326;2023-02-22T08:33:24;18.52;;;12.27;;
17794;SDS011;9021;50.882;4.326;2023-02-22T08:35:49;23.25;;;11.27;;
17794;SDS011;9021;50.882;4.326;2023-02-22T08:40:47;16.88;;;11.10;;
17794;SDS011;9021;50.882;4.326;2023-02-22T08:43:14;18.63;;;11.13;;
17794;SDS011;9021;50.882;4.326;2023-02-22T08:45:40;17.40;;;11.10;;
17794;SDS011;9021;50.882;4.326;2023-02-22T08:48:06;13.43;;;10.52;;
17794;SDS011;9021;50.882;4.326;2023-02-22T08:50:31;19.20;;;11.90;;
17794;SDS011;9021;50.882;4.326;2023-02-22T08:52:58;16.17;;;11.02;;
17794;SDS011;9021;50.882;4.326;2023-02-22T08:55:26;14.88;;;10.57;;
17794;SDS011;9021;50.882;4.326;2023-02-22T08:57:54;16.33;;;11.20;;
17794;SDS011;9021;50.882;4.326;2023-02-22T09:00:20;16.60;;;10.80;;
17794;SDS011;9021;50.882;4.326;2023-02-22T09:02:49;17.42;;;11.15;;
17794;SDS011;9021;50.882;4.326;2023-02-22T09:05:15;14.88;;;10.85;;
17794;SDS011;9021;50.882;4.326;2023-02-22T09:07:41;14.18;;;10.57;;
17794;SDS011;9021;50.882;4.326;2023-02-22T09:10:13;20.05;;;11.70;;
17794;SDS011;9021;50.882;4.326;2023-02-22T09:12:42;18.65;;;10.70;;
17794;SDS011;9021;50.882;4.326;2023-02-22T09:15:08;19.65;;;12.18;;
17794;SDS011;9021;50.882;4.326;2023-02-22T09:17:34;14.82;;;10.50;;
17794;SDS011;9021;50.882;4.326;2023-02-22T09:20:02;18.52;;;11.38;;
17794;SDS011;9021;50.882;4.326;2023-02-22T09:22:28;15.15;;;11.25;;
17794;SDS011;9021;50.882;4.326;2023-02-22T09:24:54;18.20;;;11.10;;
17794;SDS011;9021;50.882;4.326;2023-02-22T09:27:19;21.08;;;11.23;;
17794;SDS011;9021;50.882;4.326;2023-02-22T09:29:48;15.10;;;10.60;;
17794;SDS011;9021;50.882;4.326;2023-02-22T09:32:14;15.30;;;11.80;;
17794;SDS011;9021;50.882;4.326;2023-02-22T09:34:42;15.95;;;11.55;;
17794;SDS011;9021;50.882;4.326;2023-02-22T09:37:10;17.92;;;12.13;;
17794;SDS011;9021;50.882;4.326;2023-02-22T09:39:36;16.10;;;11.82;;
17794;SDS011;9021;50.882;4.326;2023-02-22T09:42:04;16.88;;;11.48;;
17794;SDS011;9021;50.882;4.326;2023-02-22T09:47:49;19.00;;;11.68;;
17794;SDS011;9021;50.882;4.326;2023-02-22T09:50:30;14.18;;;11.23;;
17794;SDS011;9021;50.882;4.326;2023-02-22T09:53:09;17.65;;;12.25;;
17794;SDS011;9021;50.882;4.326;2023-02-22T09:55:43;20.50;;;11.85;;
17794;SDS011;9021;50.882;4.326;2023-02-22T10:04:33;18.85;;;13.02;;
17794;SDS011;9021;50.882;4.326;2023-02-22T10:06:36;17.48;;;12.15;;
17794;SDS011;9021;50.882;4.326;2023-02-22T10:09:07;15.40;;;11.60;;
17794;SDS011;9021;50.882;4.326;2023-02-22T10:27:21;15.43;;;12.23;;
17794;SDS011;9021;50.882;4.326;2023-02-22T10:30:18;16.58;;;12.98;;
17794;SDS011;9021;50.882;4.326;2023-02-22T10:35:25;16.60;;;12.45;;
17794;SDS011;9021;50.882;4.326;2023-02-22T10:43:36;18.42;;;12.80;;
17794;SDS011;9021;50.882;4.326;2023-02-22T10:46:03;17.38;;;13.13;;
17794;SDS011;9021;50.882;4.326;2023-02-22T10:48:31;16.88;;;13.88;;
17794;SDS011;9021;50.882;4.326;2023-02-22T10:51:04;18.45;;;14.10;;
17794;SDS011;9021;50.882;4.326;2023-02-22T10:53:32;21.63;;;14.40;;
17794;SDS011;9021;50.882;4.326;2023-02-22T10:56:18;21.35;;;14.98;;
17794;SDS011;9021;50.882;4.326;2023-02-22T10:58:59;22.30;;;15.10;;
17794;SDS011;9021;50.882;4.326;2023-02-22T11:04:10;18.83;;;15.13;;
17794;SDS011;9021;50.882;4.326;2023-02-22T11:06:41;20.20;;;15.30;;
17794;SDS011;9021;50.882;4.326;2023-02-22T11:09:16;20.52;;;15.52;;
17794;SDS011;9021;50.882;4.326;2023-02-22T11:11:46;17.90;;;15.07;;
17794;SDS011;9021;50.882;4.326;2023-02-22T11:14:26;21.55;;;15.95;;
17794;SDS011;9021;50.882;4.326;2023-02-22T11:16:53;19.08;;;15.98;;
17794;SDS011;9021;50.882;4.326;2023-02-22T11:19:28;17.58;;;15.55;;
17794;SDS011;9021;50.882;4.326;2023-02-22T11:22:07;18.98;;;16.38;;
17794;SDS011;9021;50.882;4.326;2023-02-22T11:24:47;23.65;;;16.42;;
17794;SDS011;9021;50.882;4.326;2023-02-22T11:27:27;20.45;;;16.35;;
17794;SDS011;9021;50.882;4.326;2023-02-22T11:29:56;21.08;;;16.02;;
17794;SDS011;9021;50.882;4.326;2023-02-22T11:32:35;19.58;;;16.38;;
17794;SDS011;9021;50.882;4.326;2023-02-22T11:37:53;21.95;;;17.77;;
17794;SDS011;9021;50.882;4.326;2023-02-22T11:40:40;29.08;;;18.48;;
17794;SDS011;9021;50.882;4.326;2023-02-22T11:43:07;21.40;;;18.98;;
17794;SDS011;9021;50.882;4.326;2023-02-22T11:48:28;30.27;;;19.98;;
17794;SDS011;9021;50.882;4.326;2023-02-22T12:01:56;26.38;;;21.25;;
17794;SDS011;9021;50.882;4.326;2023-02-22T12:04:35;23.15;;;20.80;;
17794;SDS011;9021;50.882;4.326;2023-02-22T12:15:27;26.27;;;21.20;;
17794;SDS011;9021;50.882;4.326;2023-02-22T12:18:13;24.20;;;21.58;;
17794;SDS011;9021;50.882;4.326;2023-02-22T12:21:01;28.30;;;23.23;;
17794;SDS011;9021;50.882;4.326;2023-02-22T12:26:14;27.55;;;21.75;;
17794;SDS011;9021;50.882;4.326;2023-02-22T12:28:50;28.55;;;23.08;;
17794;SDS011;9021;50.882;4.326;2023-02-22T12:31:36;26.85;;;23.05;;
17794;SDS011;9021;50.882;4.326;2023-02-22T12:37:14;27.58;;;22.73;;
17794;SDS011;9021;50.882;4.326;2023-02-22T12:40:02;28.02;;;22.73;;
17794;SDS011;9021;50.882;4.326;2023-02-22T12:51:01;32.90;;;26.25;;
17794;SDS011;9021;50.882;4.326;2023-02-22T12:53:51;29.23;;;25.98;;
17794;SDS011;9021;50.882;4.326;2023-02-22T12:56:33;30.58;;;26.15;;
17794;SDS011;9021;50.882;4.326;2023-02-22T12:59:08;30.27;;;25.65;;
17794;SDS011;9021;50.882;4.326;2023-02-22T13:01:55;27.73;;;23.85;;
17794;SDS011;9021;50.882;4.326;2023-02-22T13:04:27;31.73;;;24.33;;
17794;SDS011;9021;50.882;4.326;2023-02-22T13:07:14;26.80;;;23.63;;
17794;SDS011;9021;50.882;4.326;2023-02-22T13:09:55;28.95;;;24.83;;
17794;SDS011;9021;50.882;4.326;2023-02-22T13:15:15;27.20;;;24.30;;
17794;SDS011;9021;50.882;4.326;2023-02-22T13:20:42;28.23;;;24.60;;
17794;SDS011;9021;50.882;4.326;2023-02-22T13:23:20;32.45;;;26.48;;
17794;SDS011;9021;50.882;4.326;2023-02-22T13:29:01;33.70;;;25.85;;
17794;SDS011;9021;50.882;4.326;2023-02-22T13:34:35;30.90;;;27.35;;
17794;SDS011;9021;50.882;4.326;2023-02-22T13:54:15;33.50;;;29.02;;
17794;SDS011;9021;50.882;4.326;2023-02-22T13:56:42;34.70;;;29.40;;
17794;SDS011;9021;50.882;4.326;2023-02-22T13:59:23;33.45;;;29.00;;
17794;SDS011;9021;50.882;4.326;2023-02-22T14:01:54;34.22;;;29.80;;
17794;SDS011;9021;50.882;4.326;2023-02-22T14:07:53;38.75;;;29.88;;
17794;SDS011;9021;50.882;4.326;2023-02-22T14:09:55;37.55;;;30.52;;
17794;SDS011;9021;50.882;4.326;2023-02-22T14:12:43;35.25;;;29.60;;
17794;SDS011;9021;50.882;4.326;2023-02-22T14:15:13;37.28;;;30.40;;
17794;SDS011;9021;50.882;4.326;2023-02-22T14:17:47;33.00;;;29.40;;
17794;SDS011;9021;50.882;4.326;2023-02-22T14:20:24;38.65;;;30.33;;
17794;SDS011;9021;50.882;4.326;2023-02-22T14:26:15;40.40;;;32.15;;
17794;SDS011;9021;50.882;4.326;2023-02-22T14:31:11;39.47;;;31.95;;
17794;SDS011;9021;50.882;4.326;2023-02-22T14:33:52;38.47;;;32.83;;
17794;SDS011;9021;50.882;4.326;2023-02-22T14:36:22;39.65;;;32.13;;
17794;SDS011;9021;50.882;4.326;2023-02-22T14:38:57;41.20;;;32.08;;
17794;SDS011;9021;50.882;4.326;2023-02-22T14:41:30;39.05;;;33.00;;
17794;SDS011;9021;50.882;4.326;2023-02-22T14:43:57;37.75;;;33.60;;
17794;SDS011;9021;50.882;4.326;2023-02-22T14:46:27;40.15;;;33.50;;
17794;SDS011;9021;50.882;4.326;2023-02-22T14:48:59;39.88;;;33.15;;
17794;SDS011;9021;50.882;4.326;2023-02-22T14:51:41;42.28;;;33.78;;
17794;SDS011;9021;50.882;4.326;2023-02-22T14:54:19;43.13;;;35.30;;
17794;SDS011;9021;50.882;4.326;2023-02-22T14:57:12;41.35;;;33.45;;
17794;SDS011;9021;50.882;4.326;2023-02-22T15:00:13;38.67;;;33.03;;
17794;SDS011;9021;50.882;4.326;2023-02-22T15:03:00;43.28;;;35.33;;
17794;SDS011;9021;50.882;4.326;2023-02-22T15:05:26;46.95;;;35.70;;
17794;SDS011;9021;50.882;4.326;2023-02-22T15:10:23;47.55;;;35.60;;
17794;SDS011;9021;50.882;4.326;2023-02-22T15:12:56;44.80;;;35.45;;
17794;SDS011;9021;50.882;4.326;2023-02-22T15:15:37;45.35;;;35.38;;
17794;SDS011;9021;50.882;4.326;2023-02-22T15:18:33;47.95;;;36.17;;
17794;SDS011;9021;50.882;4.326;2023-02-22T15:21:13;43.60;;;34.90;;
17794;SDS011;9021;50.882;4.326;2023-02-22T15:23:45;42.97;;;34.42;;
17794;SDS011;9021;50.882;4.326;2023-02-22T15:26:27;46.33;;;36.67;;
17794;SDS011;9021;50.882;4.326;2023-02-22T15:28:58;43.97;;;36.13;;
17794;SDS011;9021;50.882;4.326;2023-02-22T15:33:51;44.53;;;36.47;;
17794;SDS011;9021;50.882;4.326;2023-02-22T15:36:19;44.15;;;35.45;;
17794;SDS011;9021;50.882;4.326;2023-02-22T15:38:50;47.90;;;37.55;;
17794;SDS011;9021;50.882;4.326;2023-02-22T15:41:27;54.90;;;37.65;;
17794;SDS011;9021;50.882;4.326;2023-02-22T15:44:05;52.65;;;39.45;;
17794;SDS011;9021;50.882;4.326;2023-02-22T15:46:32;54.83;;;39.05;;
17794;SDS011;9021;50.882;4.326;2023-02-22T15:49:05;53.20;;;39.20;;
17794;SDS011;9021;50.882;4.326;2023-02-22T15:51:43;53.67;;;38.13;;
17794;SDS011;9021;50.882;4.326;2023-02-22T15:54:13;55.20;;;38.13;;
17794;SDS011;9021;50.882;4.326;2023-02-22T15:56:39;50.40;;;36.65;;
17794;SDS011;9021;50.882;4.326;2023-02-22T15:59:15;51.10;;;36.15;;
17794;SDS011;9021;50.882;4.326;2023-02-22T16:01:44;51.90;;;35.97;;
17794;SDS011;9021;50.882;4.326;2023-02-22T16:04:22;52.50;;;36.10;;
17794;SDS011;9021;50.882;4.326;2023-02-22T16:06:50;49.00;;;35.15;;
17794;SDS011;9021;50.882;4.326;2023-02-22T16:09:25;53.37;;;36.97;;
17794;SDS011;9021;50.882;4.326;2023-02-22T16:12:26;54.25;;;36.20;;
17794;SDS011;9021;50.882;4.326;2023-02-22T16:14:44;55.28;;;37.20;;
17794;SDS011;9021;50.882;4.326;2023-02-22T16:20:27;58.28;;;38.47;;
17794;SDS011;9021;50.882;4.326;2023-02-22T16:22:55;56.22;;;37.47;;
17794;SDS011;9021;50.882;4.326;2023-02-22T16:25:29;55.45;;;38.75;;
17794;SDS011;9021;50.882;4.326;2023-02-22T16:28:00;61.13;;;40.92;;
17794;SDS011;9021;50.882;4.326;2023-02-22T16:30:36;58.33;;;38.83;;
17794;SDS011;9021;50.882;4.326;2023-02-22T16:33:05;56.80;;;39.22;;
17794;SDS011;9021;50.882;4.326;2023-02-22T16:35:37;58.70;;;39.22;;
17794;SDS011;9021;50.882;4.326;2023-02-22T16:38:04;61.22;;;40.03;;
17794;SDS011;9021;50.882;4.326;2023-02-22T16:40:36;58.03;;;40.33;;
17794;SDS011;9021;50.882;4.326;2023-02-22T16:43:09;58.38;;;39.28;;
17794;SDS011;9021;50.882;4.326;2023-02-22T16:45:38;60.75;;;38.70;;
17794;SDS011;9021;50.882;4.326;2023-02-22T16:48:20;59.35;;;39.50;;
17794;SDS011;9021;50.882;4.326;2023-02-22T16:50:47;56.45;;;39.08;;
17794;SDS011;9021;50.882;4.326;2023-02-22T16:53:14;58.85;;;39.28;;
17794;SDS011;9021;50.882;4.326;2023-02-22T16:55:44;62.10;;;41.03;;
17794;SDS011;9021;50.882;4.326;2023-02-22T16:58:11;57.45;;;38.88;;
17794;SDS011;9021;50.882;4.326;2023-02-22T17:00:38;59.47;;;39.53;;
17794;SDS011;9021;50.882;4.326;2023-02-22T17:03:08;60.60;;;39.85;;
17794;SDS011;9021;50.882;4.326;2023-02-22T17:05:38;63.90;;;40.90;;
17794;SDS011;9021;50.882;4.326;2023-02-22T17:08:04;63.42;;;41.20;;
17794;SDS011;9021;50.882;4.326;2023-02-22T17:10:30;67.93;;;42.60;;
17794;SDS011;9021;50.882;4.326;2023-02-22T17:12:56;63.97;;;41.88;;
17794;SDS011;9021;50.882;4.326;2023-02-22T17:15:24;65.75;;;42.97;;
17794;SDS011;9021;50.882;4.326;2023-02-22T17:17:52;67.43;;;41.92;;
17794;SDS011;9021;50.882;4.326;2023-02-22T17:20:18;71.32;;;42.70;;
17794;SDS011;9021;50.882;4.326;2023-02-22T17:22:49;68.55;;;41.65;;
17794;SDS011;9021;50.882;4.326;2023-02-22T17:27:46;71.07;;;43.17;;
17794;SDS011;9021;50.882;4.326;2023-02-22T17:32:39;71.57;;;42.80;;
17794;SDS011;9021;50.882;4.326;2023-02-22T17:35:04;66.03;;;42.72;;
17794;SDS011;9021;50.882;4.326;2023-02-22T17:37:30;66.85;;;42.17;;